createdAt,value
2019-02-04T00:00:58.370Z,74.93
2019-02-04T00:02:03.493Z,75.02
2019-02-04T00:03:08.353Z,74.91
2019-02-04T00:04:13.624Z,74.67
2019-02-04T00:05:18.771Z,75.13
2019-02-04T00:06:24.666Z,75.28
2019-02-04T00:07:30.102Z,75.42
2019-02-04T00:08:35.519Z,75.18
2019-02-04T00:09:40.364Z,75.24
2019-02-04T00:10:45.294Z,74.87
2019-02-04T00:11:50.216Z,74.96
2019-02-04T00:12:55.000Z,74.63
2019-02-04T00:14:00.178Z,74.60
2019-02-04T00:15:05.523Z,74.68
2019-02-04T00:16:10.988Z,74.92
2019-02-04T00:17:15.795Z,74.86
2019-02-04T00:18:20.586Z,74.57
2019-02-04T00:19:25.748Z,74.62
2019-02-04T00:20:30.550Z,75.85
2019-02-04T00:21:35.764Z,75.95
2019-02-04T00:22:40.719Z,75.25
2019-02-04T00:23:46.698Z,75.10
2019-02-04T00:24:51.833Z,75.00
2019-02-04T00:25:56.608Z,74.72
2019-02-04T00:27:01.120Z,74.23
2019-02-04T00:28:05.971Z,74.75
2019-02-04T00:29:10.463Z,75.18
2019-02-04T00:30:16.200Z,75.81
2019-02-04T00:31:21.495Z,75.64
2019-02-04T00:32:26.944Z,75.50
2019-02-04T00:33:31.414Z,75.78
2019-02-04T00:34:36.835Z,75.42
2019-02-04T00:35:42.256Z,75.82
2019-02-04T00:36:47.203Z,75.80
2019-02-04T00:37:51.761Z,75.57
2019-02-04T00:38:57.263Z,76.36
2019-02-04T00:40:02.151Z,76.10
2019-02-04T00:41:07.535Z,76.30
2019-02-04T00:42:12.447Z,76.43
2019-02-04T00:43:17.243Z,76.58
2019-02-04T00:44:22.392Z,76.21
2019-02-04T00:45:27.623Z,76.25
2019-02-04T00:46:32.367Z,76.34
2019-02-04T00:47:38.070Z,76.44
2019-02-04T00:48:43.207Z,76.31
2019-02-04T00:49:48.500Z,76.22
2019-02-04T00:50:53.374Z,76.19
2019-02-04T00:51:58.134Z,75.68
2019-02-04T00:53:02.951Z,75.63
2019-02-04T00:54:07.437Z,75.07
2019-02-04T00:55:12.401Z,75.25
2019-02-04T00:56:17.951Z,75.65
2019-02-04T00:57:22.790Z,75.87
2019-02-04T00:58:27.607Z,75.66
2019-02-04T00:59:32.401Z,75.79
2019-02-04T01:00:37.176Z,76.35
2019-02-04T01:01:41.948Z,76.71
2019-02-04T01:02:46.781Z,76.86
2019-02-04T01:03:51.592Z,76.54
2019-02-04T01:04:56.070Z,76.71
2019-02-04T01:06:01.561Z,76.89
2019-02-04T01:07:06.814Z,76.86
2019-02-04T01:08:11.889Z,77.14
2019-02-04T01:09:16.640Z,76.76
2019-02-04T01:10:23.502Z,77.04
2019-02-04T01:11:28.320Z,77.13
2019-02-04T01:12:33.481Z,77.56
2019-02-04T01:13:38.261Z,77.42
2019-02-04T01:14:43.131Z,77.49
2019-02-04T01:15:48.134Z,77.23
2019-02-04T01:17:03.261Z,76.95
2019-02-04T01:18:00.465Z,76.72
2019-02-04T01:19:05.250Z,76.52
2019-02-04T01:20:11.015Z,76.48
2019-02-04T01:21:15.966Z,76.12
2019-02-04T01:22:20.908Z,76.22
2019-02-04T01:23:25.392Z,76.35
2019-02-04T01:24:30.266Z,75.97
2019-02-04T01:25:34.770Z,76.08
2019-02-04T01:26:39.841Z,75.94
2019-02-04T01:27:44.581Z,76.28
2019-02-04T01:28:49.338Z,76.68
2019-02-04T01:29:54.964Z,77.15
2019-02-04T01:30:59.703Z,76.73
2019-02-04T01:32:05.476Z,76.31
2019-02-04T01:33:10.287Z,76.25
2019-02-04T01:34:15.459Z,76.16
2019-02-04T01:35:21.276Z,76.33
2019-02-04T01:36:25.734Z,76.63
2019-02-04T01:37:31.147Z,76.98
2019-02-04T01:38:36.364Z,77.16
2019-02-04T01:39:41.503Z,77.54
2019-02-04T01:40:46.643Z,77.88
2019-02-04T01:41:51.802Z,77.08
2019-02-04T01:42:56.693Z,76.58
2019-02-04T01:44:02.315Z,76.18
2019-02-04T01:45:08.030Z,76.17
2019-02-04T01:46:12.881Z,76.21
2019-02-04T01:47:17.828Z,76.24
2019-02-04T01:48:22.918Z,76.78
2019-02-04T01:49:28.530Z,76.58
2019-02-04T01:50:33.340Z,76.87
2019-02-04T01:51:37.811Z,77.23
2019-02-04T01:52:42.981Z,77.09
2019-02-04T01:53:47.967Z,77.15
2019-02-04T01:54:53.178Z,77.46
2019-02-04T01:55:58.319Z,77.63
2019-02-04T01:57:03.215Z,77.03
2019-02-04T01:58:08.750Z,76.76
2019-02-04T01:59:14.168Z,76.83
2019-02-04T02:00:30.109Z,76.69
2019-02-04T02:01:35.054Z,76.56
2019-02-04T02:02:40.041Z,76.76
2019-02-04T02:03:45.115Z,76.30
2019-02-04T02:04:49.890Z,76.25
2019-02-04T02:05:54.672Z,76.26
2019-02-04T02:06:59.750Z,76.51
2019-02-04T02:08:04.334Z,76.72
2019-02-04T02:09:17.068Z,77.21
2019-02-04T02:10:22.901Z,76.87
2019-02-04T02:11:28.056Z,76.49
2019-02-04T02:12:32.800Z,77.37
2019-02-04T02:13:37.650Z,76.82
2019-02-04T02:14:42.837Z,76.83
2019-02-04T02:15:47.941Z,76.54
2019-02-04T02:16:52.739Z,77.47
2019-02-04T02:17:58.236Z,77.30
2019-02-04T02:19:03.062Z,76.82
2019-02-04T02:20:08.156Z,76.79
2019-02-04T02:21:13.300Z,76.98
2019-02-04T02:22:18.061Z,76.76
2019-02-04T02:23:23.554Z,77.03
2019-02-04T02:24:28.666Z,76.86
2019-02-04T02:25:33.719Z,77.21
2019-02-04T02:26:39.236Z,77.08
2019-02-04T02:27:44.310Z,77.21
2019-02-04T02:28:49.384Z,78.27
2019-02-04T02:29:54.136Z,77.73
2019-02-04T02:30:59.730Z,77.42
2019-02-04T02:32:04.537Z,78.10
2019-02-04T02:33:09.328Z,77.27
2019-02-04T02:34:14.104Z,76.98
2019-02-04T02:35:18.949Z,77.54
2019-02-04T02:36:23.540Z,77.04
2019-02-04T02:37:28.411Z,78.78
2019-02-04T02:38:35.452Z,78.22
2019-02-04T02:39:40.036Z,78.00
2019-02-04T02:40:45.163Z,77.24
2019-02-04T02:41:49.938Z,77.60
2019-02-04T02:42:55.103Z,77.27
2019-02-04T02:44:00.575Z,78.19
2019-02-04T02:45:06.098Z,78.22
2019-02-04T02:46:11.840Z,77.68
2019-02-04T02:47:16.729Z,78.16
2019-02-04T02:48:22.296Z,77.78
2019-02-04T02:49:28.403Z,77.65
2019-02-04T02:50:32.909Z,77.39
2019-02-04T02:51:37.973Z,77.80
2019-02-04T02:52:42.925Z,78.63
2019-02-04T02:53:47.670Z,78.00
2019-02-04T02:54:52.958Z,78.28
2019-02-04T02:55:57.712Z,78.69
2019-02-04T02:57:03.497Z,78.24
2019-02-04T02:58:08.009Z,77.90
2019-02-04T02:59:13.371Z,77.61
2019-02-04T03:00:20.111Z,77.92
2019-02-04T03:01:25.234Z,78.17
2019-02-04T03:02:30.527Z,78.11
2019-02-04T03:03:35.312Z,77.85
2019-02-04T03:04:39.910Z,77.44
2019-02-04T03:05:44.787Z,77.70
2019-02-04T03:06:50.212Z,77.25
2019-02-04T03:07:54.981Z,77.49
2019-02-04T03:09:00.091Z,77.24
2019-02-04T03:10:04.881Z,77.00
2019-02-04T03:11:09.654Z,77.03
2019-02-04T03:12:15.153Z,77.00
2019-02-04T03:13:21.129Z,76.67
2019-02-04T03:14:25.913Z,77.07
2019-02-04T03:15:33.705Z,76.66
2019-02-04T03:16:38.480Z,76.43
2019-02-04T03:17:51.016Z,77.20
2019-02-04T03:18:49.232Z,77.85
2019-02-04T03:19:54.054Z,78.27
2019-02-04T03:20:59.088Z,77.56
2019-02-04T03:22:03.857Z,76.95
2019-02-04T03:23:08.593Z,77.16
2019-02-04T03:24:13.714Z,76.87
2019-02-04T03:25:18.879Z,77.37
2019-02-04T03:26:23.460Z,77.12
2019-02-04T03:27:28.520Z,77.79
2019-02-04T03:28:34.046Z,77.21
2019-02-04T03:29:38.570Z,76.87
2019-02-04T03:30:43.775Z,76.86
2019-02-04T03:31:48.527Z,77.58
2019-02-04T03:32:53.927Z,76.95
2019-02-04T03:33:59.654Z,76.58
2019-02-04T03:35:04.167Z,76.37
2019-02-04T03:36:09.486Z,76.79
2019-02-04T03:37:14.600Z,77.69
2019-02-04T03:38:19.087Z,78.15
2019-02-04T03:39:23.598Z,77.93
2019-02-04T03:40:30.229Z,78.23
2019-02-04T03:41:35.855Z,78.19
2019-02-04T03:42:41.406Z,78.14
2019-02-04T03:43:46.194Z,77.89
2019-02-04T03:44:50.689Z,77.62
2019-02-04T03:45:55.165Z,78.47
2019-02-04T03:47:00.096Z,78.86
2019-02-04T03:48:09.341Z,78.04
2019-02-04T03:49:11.749Z,78.71
2019-02-04T03:50:17.135Z,78.81
2019-02-04T03:51:22.515Z,78.67
2019-02-04T03:52:27.155Z,78.82
2019-02-04T03:53:31.902Z,78.82
2019-02-04T03:54:37.382Z,79.38
2019-02-04T03:55:42.171Z,79.39
2019-02-04T03:56:46.947Z,78.91
2019-02-04T03:57:52.515Z,79.31
2019-02-04T03:58:57.795Z,79.24
2019-02-04T04:00:02.628Z,78.85
2019-02-04T04:01:07.365Z,78.75
2019-02-04T04:02:11.932Z,78.68
2019-02-04T04:03:17.071Z,78.93
2019-02-04T04:04:22.162Z,78.88
2019-02-04T04:05:27.258Z,79.42
2019-02-04T04:06:32.346Z,78.84
2019-02-04T04:07:37.462Z,78.88
2019-02-04T04:08:43.010Z,78.84
2019-02-04T04:09:48.351Z,78.67
2019-02-04T04:10:53.490Z,78.59
2019-02-04T04:11:58.450Z,78.77
2019-02-04T04:13:03.652Z,78.65
2019-02-04T04:14:08.939Z,79.14
2019-02-04T04:15:13.883Z,78.95
2019-02-04T04:16:18.653Z,78.89
2019-02-04T04:17:23.866Z,78.80
2019-02-04T04:18:28.438Z,78.87
2019-02-04T04:19:33.582Z,78.59
2019-02-04T04:20:38.705Z,78.62
2019-02-04T04:21:43.533Z,78.89
2019-02-04T04:22:48.580Z,78.91
2019-02-04T04:23:54.898Z,78.51
2019-02-04T04:25:00.005Z,78.42
2019-02-04T04:26:04.796Z,78.32
2019-02-04T04:27:10.365Z,78.38
2019-02-04T04:28:15.340Z,78.43
2019-02-04T04:29:20.096Z,78.53
2019-02-04T04:30:26.752Z,78.70
2019-02-04T04:31:32.061Z,78.27
2019-02-04T04:32:36.798Z,78.49
2019-02-04T04:33:41.869Z,78.40
2019-02-04T04:34:46.640Z,78.59
2019-02-04T04:35:51.919Z,78.52
2019-02-04T04:36:57.438Z,78.34
2019-02-04T04:38:02.714Z,78.14
2019-02-04T04:39:08.435Z,78.46
2019-02-04T04:40:13.241Z,78.86
2019-02-04T04:41:17.763Z,79.09
2019-02-04T04:42:23.369Z,78.90
2019-02-04T04:43:28.241Z,78.83
2019-02-04T04:44:33.077Z,79.24
2019-02-04T04:45:37.827Z,79.14
2019-02-04T04:46:42.622Z,78.79
2019-02-04T04:47:47.876Z,78.29
2019-02-04T04:48:55.629Z,78.12
2019-02-04T04:49:59.479Z,78.12
2019-02-04T04:51:04.841Z,78.10
2019-02-04T04:52:10.056Z,78.30
2019-02-04T04:53:14.932Z,78.05
2019-02-04T04:54:19.423Z,78.07
2019-02-04T04:55:26.475Z,77.96
2019-02-04T04:56:31.656Z,78.27
2019-02-04T04:57:36.834Z,78.10
2019-02-04T04:58:41.644Z,78.41
2019-02-04T04:59:46.733Z,78.50
2019-02-04T05:00:51.494Z,78.55
2019-02-04T05:01:56.293Z,78.39
2019-02-04T05:03:01.091Z,78.38
2019-02-04T05:04:07.037Z,78.35
2019-02-04T05:05:12.260Z,77.96
2019-02-04T05:06:17.812Z,77.97
2019-02-04T05:07:22.314Z,78.42
2019-02-04T05:08:27.107Z,78.19
2019-02-04T05:09:32.309Z,78.21
2019-02-04T05:10:37.502Z,78.60
2019-02-04T05:11:42.299Z,78.43
2019-02-04T05:12:47.476Z,78.43
2019-02-04T05:13:52.571Z,78.63
2019-02-04T05:14:58.044Z,78.56
2019-02-04T05:16:02.514Z,78.44
2019-02-04T05:17:07.357Z,78.59
2019-02-04T05:18:11.860Z,78.44
2019-02-04T05:19:16.349Z,78.23
2019-02-04T05:20:21.164Z,78.08
2019-02-04T05:21:26.377Z,78.38
2019-02-04T05:22:31.112Z,78.21
2019-02-04T05:23:35.952Z,77.90
2019-02-04T05:24:40.772Z,77.94
2019-02-04T05:25:45.654Z,77.91
2019-02-04T05:26:50.889Z,77.74
2019-02-04T05:27:56.264Z,77.62
2019-02-04T05:29:01.184Z,77.66
2019-02-04T05:30:06.416Z,77.81
2019-02-04T05:31:11.534Z,77.69
2019-02-04T05:32:16.940Z,77.67
2019-02-04T05:33:22.519Z,77.50
2019-02-04T05:34:27.806Z,77.71
2019-02-04T05:35:32.545Z,77.79
2019-02-04T05:36:37.315Z,77.58
2019-02-04T05:37:42.103Z,77.85
2019-02-04T05:38:46.696Z,77.74
2019-02-04T05:39:51.489Z,77.71
2019-02-04T05:40:56.259Z,77.76
2019-02-04T05:42:01.314Z,77.67
2019-02-04T05:43:06.207Z,78.03
2019-02-04T05:44:10.693Z,77.94
2019-02-04T05:45:16.864Z,77.80
2019-02-04T05:46:21.636Z,77.97
2019-02-04T05:47:26.434Z,77.80
2019-02-04T05:48:31.005Z,77.70
2019-02-04T05:49:35.765Z,77.97
2019-02-04T05:50:40.385Z,77.86
2019-02-04T05:51:45.529Z,77.86
2019-02-04T05:52:51.301Z,77.98
2019-02-04T05:53:56.427Z,77.90
2019-02-04T05:55:00.909Z,77.78
2019-02-04T05:56:05.726Z,77.80
2019-02-04T05:57:10.856Z,78.18
2019-02-04T05:58:15.640Z,78.35
2019-02-04T05:59:20.167Z,78.08
2019-02-04T06:00:39.015Z,78.09
2019-02-04T06:01:43.901Z,78.68
2019-02-04T06:02:49.495Z,79.01
2019-02-04T06:03:54.310Z,79.10
2019-02-04T06:04:59.213Z,78.53
2019-02-04T06:06:04.312Z,78.04
2019-02-04T06:07:09.388Z,78.15
2019-02-04T06:08:14.160Z,78.16
2019-02-04T06:09:19.313Z,78.03
2019-02-04T06:10:24.978Z,77.94
2019-02-04T06:11:29.827Z,78.11
2019-02-04T06:12:35.061Z,77.91
2019-02-04T06:13:40.034Z,77.92
2019-02-04T06:14:45.213Z,77.58
2019-02-04T06:15:50.314Z,77.73
2019-02-04T06:16:55.793Z,77.83
2019-02-04T06:18:00.559Z,77.61
2019-02-04T06:19:05.320Z,77.78
2019-02-04T06:20:12.758Z,78.07
2019-02-04T06:21:17.508Z,77.89
2019-02-04T06:22:22.554Z,77.82
2019-02-04T06:23:27.893Z,77.90
2019-02-04T06:24:33.142Z,77.75
2019-02-04T06:25:37.922Z,77.56
2019-02-04T06:26:42.727Z,77.47
2019-02-04T06:27:47.952Z,77.33
2019-02-04T06:28:53.056Z,77.17
2019-02-04T06:29:58.204Z,77.25
2019-02-04T06:31:03.292Z,77.35
2019-02-04T06:32:08.081Z,77.34
2019-02-04T06:33:13.004Z,77.21
2019-02-04T06:34:17.829Z,77.46
2019-02-04T06:35:28.908Z,77.46
2019-02-04T06:36:33.685Z,77.26
2019-02-04T06:37:38.469Z,77.17
2019-02-04T06:38:43.877Z,77.34
2019-02-04T06:39:48.736Z,77.27
2019-02-04T06:40:54.081Z,77.19
2019-02-04T06:41:58.866Z,77.33
2019-02-04T06:43:03.444Z,77.46
2019-02-04T06:44:08.634Z,77.33
2019-02-04T06:45:14.200Z,77.08
2019-02-04T06:46:18.959Z,77.19
2019-02-04T06:47:24.100Z,77.09
2019-02-04T06:48:28.649Z,77.11
2019-02-04T06:49:33.400Z,77.35
2019-02-04T06:50:37.900Z,77.09
2019-02-04T06:51:43.575Z,76.94
2019-02-04T06:52:48.356Z,76.92
2019-02-04T06:53:53.181Z,76.77
2019-02-04T06:54:57.948Z,76.62
2019-02-04T06:56:02.699Z,76.60
2019-02-04T06:57:08.096Z,76.46
2019-02-04T06:58:13.072Z,76.46
2019-02-04T06:59:17.951Z,76.70
2019-02-04T07:00:22.748Z,76.31
2019-02-04T07:01:27.515Z,76.18
2019-02-04T07:02:32.274Z,76.24
2019-02-04T07:03:37.087Z,76.32
2019-02-04T07:04:42.288Z,76.26
2019-02-04T07:05:47.521Z,76.42
2019-02-04T07:06:52.331Z,76.30
2019-02-04T07:07:57.447Z,76.04
2019-02-04T07:09:02.929Z,76.14
2019-02-04T07:10:09.315Z,76.18
2019-02-04T07:11:14.201Z,76.37
2019-02-04T07:12:19.329Z,76.30
2019-02-04T07:13:25.163Z,76.27
2019-02-04T07:14:30.137Z,76.22
2019-02-04T07:15:35.274Z,76.33
2019-02-04T07:16:40.056Z,76.28
2019-02-04T07:17:45.003Z,76.33
2019-02-04T07:18:51.106Z,76.27
2019-02-04T07:19:56.323Z,76.22
2019-02-04T07:21:01.130Z,76.15
2019-02-04T07:22:05.883Z,76.43
2019-02-04T07:23:10.642Z,76.16
2019-02-04T07:24:15.167Z,75.98
2019-02-04T07:25:20.146Z,75.55
2019-02-04T07:26:24.909Z,75.54
2019-02-04T07:27:29.731Z,75.50
2019-02-04T07:28:34.208Z,75.43
2019-02-04T07:29:38.986Z,75.49
2019-02-04T07:30:43.476Z,75.42
2019-02-04T07:31:48.294Z,75.18
2019-02-04T07:32:53.057Z,75.55
2019-02-04T07:33:58.209Z,75.63
2019-02-04T07:35:03.011Z,75.41
2019-02-04T07:36:07.679Z,75.45
2019-02-04T07:37:13.345Z,75.45
2019-02-04T07:38:19.378Z,75.17
2019-02-04T07:39:24.328Z,75.08
2019-02-04T07:40:31.141Z,75.22
2019-02-04T07:41:36.245Z,75.13
2019-02-04T07:42:40.726Z,74.99
2019-02-04T07:43:45.342Z,74.90
2019-02-04T07:44:50.169Z,74.75
2019-02-04T07:45:54.950Z,74.90
2019-02-04T07:46:59.711Z,74.96
2019-02-04T07:48:05.053Z,74.43
2019-02-04T07:49:10.261Z,74.22
2019-02-04T07:50:15.198Z,74.14
2019-02-04T07:51:19.949Z,74.19
2019-02-04T07:52:24.742Z,74.34
2019-02-04T07:53:29.931Z,73.95
2019-02-04T07:54:34.714Z,73.95
2019-02-04T07:55:39.646Z,73.82
2019-02-04T07:56:45.228Z,73.93
2019-02-04T07:57:50.317Z,73.88
2019-02-04T07:58:55.411Z,73.76
2019-02-04T08:00:00.639Z,73.81
2019-02-04T08:01:05.722Z,73.53
2019-02-04T08:02:10.492Z,73.16
2019-02-04T08:03:15.283Z,73.02
2019-02-04T08:04:19.761Z,73.08
2019-02-04T08:05:24.859Z,73.04
2019-02-04T08:06:29.688Z,72.91
2019-02-04T08:07:34.819Z,72.45
2019-02-04T08:08:39.697Z,72.73
2019-02-04T08:09:44.601Z,72.51
2019-02-04T08:10:49.803Z,72.70
2019-02-04T08:11:55.152Z,72.55
2019-02-04T08:13:01.800Z,72.32
2019-02-04T08:14:06.808Z,72.82
2019-02-04T08:15:15.053Z,72.86
2019-02-04T08:16:19.572Z,72.91
2019-02-04T08:17:24.746Z,72.83
2019-02-04T08:18:30.114Z,72.37
2019-02-04T08:19:46.483Z,72.90
2019-02-04T08:20:41.541Z,72.35
2019-02-04T08:21:46.355Z,72.51
2019-02-04T08:22:51.163Z,71.87
2019-02-04T08:23:56.654Z,72.13
2019-02-04T08:25:01.500Z,71.95
2019-02-04T08:26:06.274Z,71.75
2019-02-04T08:27:11.092Z,72.14
2019-02-04T08:28:15.850Z,71.81
2019-02-04T08:29:20.634Z,71.38
2019-02-04T08:30:27.506Z,71.16
2019-02-04T08:31:32.350Z,71.02
2019-02-04T08:32:36.859Z,70.13
2019-02-04T08:33:41.635Z,70.44
2019-02-04T08:34:47.247Z,69.92
2019-02-04T08:35:52.003Z,69.59
2019-02-04T08:36:57.275Z,69.38
2019-02-04T08:38:02.347Z,69.14
2019-02-04T08:39:09.221Z,68.91
2019-02-04T08:40:14.040Z,68.55
2019-02-04T08:41:18.536Z,68.41
2019-02-04T08:42:23.923Z,68.58
2019-02-04T08:43:28.782Z,68.55
2019-02-04T08:44:33.420Z,67.92
2019-02-04T08:45:38.202Z,67.83
2019-02-04T08:46:42.678Z,67.52
2019-02-04T08:47:47.806Z,67.56
2019-02-04T08:48:52.563Z,68.06
2019-02-04T08:49:58.665Z,67.27
2019-02-04T08:51:03.933Z,67.28
2019-02-04T08:52:09.157Z,67.73
2019-02-04T08:53:13.931Z,67.75
2019-02-04T08:54:18.438Z,67.85
2019-02-04T08:55:23.508Z,67.73
2019-02-04T08:56:28.682Z,67.41
2019-02-04T08:57:33.457Z,67.83
2019-02-04T08:58:38.230Z,67.83
2019-02-04T08:59:42.729Z,67.90
2019-02-04T09:00:47.603Z,67.47
2019-02-04T09:01:52.815Z,68.09
2019-02-04T09:02:57.581Z,68.31
2019-02-04T09:04:03.254Z,67.78
2019-02-04T09:05:08.824Z,67.45
2019-02-04T09:06:13.735Z,67.58
2019-02-04T09:07:19.126Z,68.05
2019-02-04T09:08:23.871Z,67.85
2019-02-04T09:09:28.997Z,67.88
2019-02-04T09:10:33.870Z,67.22
2019-02-04T09:11:38.387Z,67.75
2019-02-04T09:12:43.465Z,67.90
2019-02-04T09:13:48.919Z,67.24
2019-02-04T09:14:53.988Z,68.44
2019-02-04T09:15:59.096Z,68.25
2019-02-04T09:17:03.998Z,68.60
2019-02-04T09:18:09.090Z,68.11
2019-02-04T09:19:14.281Z,68.68
2019-02-04T09:20:19.082Z,68.17
2019-02-04T10:16:30.381Z,63.67
2019-02-04T10:17:35.751Z,64.04
2019-02-04T10:18:41.495Z,63.92
2019-02-04T10:19:47.058Z,64.33
2019-02-04T10:20:51.984Z,63.65
2019-02-04T10:21:56.800Z,63.60
2019-02-04T10:36:15.223Z,63.10
2019-02-04T10:37:27.062Z,62.46
2019-02-04T10:38:39.052Z,62.15
2019-02-04T10:39:44.134Z,61.46
2019-02-04T10:41:28.127Z,60.66
2019-02-04T10:42:33.388Z,60.47
2019-02-04T10:44:31.158Z,59.80
2019-02-04T10:45:56.409Z,59.97
2019-02-04T10:51:41.196Z,59.86
2019-02-04T10:54:52.490Z,58.96
2019-02-04T10:55:57.830Z,58.01
2019-02-04T10:57:05.275Z,58.12
2019-02-04T11:01:58.226Z,56.53
2019-02-04T11:03:04.300Z,56.07
2019-02-04T11:04:10.332Z,55.73
2019-02-04T11:05:18.161Z,55.33
2019-02-04T11:06:22.984Z,55.97
2019-02-04T11:07:28.422Z,55.61
2019-02-04T11:08:33.889Z,55.33
2019-02-04T11:09:38.389Z,55.52
2019-02-04T11:10:42.995Z,55.60
2019-02-04T11:11:47.858Z,55.37
2019-02-04T11:12:52.669Z,55.34
2019-02-04T11:13:57.829Z,55.54
2019-02-04T11:15:02.732Z,55.04
2019-02-04T11:16:07.569Z,55.15
2019-02-04T11:17:12.611Z,54.88
2019-02-04T11:18:17.567Z,55.44
2019-02-04T11:19:22.469Z,54.84
2019-02-04T11:20:28.531Z,55.51
2019-02-04T11:21:33.667Z,55.09
2019-02-04T11:22:38.878Z,54.12
2019-02-04T11:23:43.843Z,53.73
2019-02-04T11:24:50.755Z,54.38
2019-02-04T11:25:55.211Z,54.04
2019-02-04T11:27:00.008Z,53.30
2019-02-04T11:28:05.308Z,52.88
2019-02-04T11:29:11.082Z,53.23
2019-02-04T11:30:19.916Z,52.93
2019-02-04T11:31:25.415Z,53.08
2019-02-04T11:32:32.990Z,52.89
2019-02-04T11:33:38.478Z,53.28
2019-02-04T11:34:43.403Z,53.10
2019-02-04T11:35:48.495Z,53.28
2019-02-04T11:36:55.253Z,52.18
2019-02-04T11:38:03.227Z,52.38
2019-02-04T11:39:09.986Z,52.97
2019-02-04T11:40:17.466Z,53.03
2019-02-04T11:41:25.055Z,53.14
2019-02-04T11:42:32.109Z,52.26
2019-02-04T11:43:38.317Z,52.28
2019-02-04T11:44:43.122Z,51.67
2019-02-04T11:45:48.190Z,51.90
2019-02-04T11:46:53.781Z,52.19
2019-02-04T11:47:59.149Z,52.22
2019-02-04T11:49:04.072Z,51.54
2019-02-04T11:50:09.895Z,52.11
2019-02-04T11:51:14.386Z,51.42
2019-02-04T11:52:19.182Z,51.54
2019-02-04T11:53:32.384Z,51.42
2019-02-04T11:54:31.350Z,51.09
2019-02-04T11:55:36.549Z,50.56
2019-02-04T11:56:42.502Z,50.35
2019-02-04T11:57:49.159Z,49.33
2019-02-04T11:58:54.369Z,49.27
2019-02-04T11:59:59.429Z,48.49
2019-02-04T12:01:04.853Z,48.95
2019-02-04T12:02:09.669Z,49.22
2019-02-04T12:03:15.792Z,48.92
2019-02-04T12:04:22.594Z,48.37
2019-02-04T12:05:27.904Z,47.89
2019-02-04T12:06:32.688Z,48.12
2019-02-04T12:07:37.959Z,48.24
2019-02-04T12:08:42.737Z,48.36
2019-02-04T12:09:51.184Z,48.29
2019-02-04T12:11:08.943Z,47.86
2019-02-04T12:12:14.498Z,48.52
2019-02-04T12:13:19.112Z,47.91
2019-02-04T12:14:23.892Z,47.83
2019-02-04T12:15:29.315Z,47.64
2019-02-04T12:16:34.110Z,48.41
2019-02-04T12:17:39.231Z,48.75
2019-02-04T12:18:44.076Z,48.06
2019-02-04T12:19:48.936Z,48.92
2019-02-04T12:20:53.814Z,48.10
2019-02-04T12:21:58.947Z,48.25
2019-02-04T12:23:04.388Z,48.22
2019-02-04T12:24:09.289Z,47.71
2019-02-04T12:25:17.190Z,48.02
2019-02-04T12:26:22.392Z,47.92
2019-02-04T12:27:32.083Z,46.90
2019-02-04T12:28:33.443Z,47.82
2019-02-04T12:29:39.747Z,47.75
2019-02-04T12:30:44.287Z,47.67
2019-02-04T12:31:49.079Z,47.74
2019-02-04T12:32:54.161Z,48.05
2019-02-04T12:33:58.694Z,47.28
2019-02-04T12:35:03.806Z,47.11
2019-02-04T12:36:08.769Z,46.78
2019-02-04T12:37:14.601Z,46.50
2019-02-04T12:38:19.166Z,46.24
2019-02-04T12:39:23.972Z,45.39
2019-02-04T12:40:32.156Z,46.34
2019-02-04T12:41:36.953Z,45.89
2019-02-04T12:42:42.032Z,45.84
2019-02-04T12:43:47.308Z,46.06
2019-02-04T12:44:52.943Z,46.17
2019-02-04T12:45:58.019Z,46.09
2019-02-04T12:47:04.452Z,46.08
2019-02-04T12:48:09.746Z,45.37
2019-02-04T12:49:15.092Z,46.25
2019-02-04T12:50:20.311Z,45.87
2019-02-04T12:51:33.270Z,46.56
2019-02-04T12:52:31.987Z,46.61
2019-02-04T12:53:36.850Z,45.67
2019-02-04T12:54:42.916Z,45.88
2019-02-04T12:55:48.247Z,45.86
2019-02-04T12:57:01.781Z,45.95
2019-02-04T12:58:09.533Z,45.88
2019-02-04T12:59:14.442Z,46.67
2019-02-04T13:00:21.756Z,46.05
2019-02-04T13:01:26.566Z,45.68
2019-02-04T13:02:34.491Z,45.69
2019-02-04T13:03:39.391Z,45.82
2019-02-04T13:04:48.714Z,45.25
2019-02-04T13:05:55.824Z,45.28
2019-02-04T13:07:01.768Z,45.85
2019-02-04T13:08:07.846Z,45.59
2019-02-04T13:09:12.686Z,46.06
2019-02-04T13:10:20.513Z,45.97
2019-02-04T13:11:25.593Z,45.57
2019-02-04T13:12:31.040Z,45.74
2019-02-04T13:13:40.140Z,46.21
2019-02-04T13:14:45.898Z,45.44
2019-02-04T13:15:50.919Z,45.60
2019-02-04T13:16:55.767Z,45.93
2019-02-04T13:18:01.393Z,46.19
2019-02-04T13:19:07.069Z,46.25
2019-02-04T13:20:12.829Z,46.03
2019-02-04T13:21:17.971Z,45.84
2019-02-04T13:22:22.526Z,45.49
2019-02-04T13:23:27.787Z,46.14
2019-02-04T13:24:33.117Z,45.98
2019-02-04T13:25:39.403Z,45.74
2019-02-04T13:26:44.795Z,46.17
2019-02-04T13:27:50.189Z,45.77
2019-02-04T13:28:55.631Z,45.91
2019-02-04T13:30:01.091Z,45.84
2019-02-04T13:31:05.858Z,46.14
2019-02-04T13:32:10.964Z,46.01
2019-02-04T13:33:16.490Z,46.16
2019-02-04T13:34:21.363Z,45.26
2019-02-04T13:35:26.166Z,44.97
2019-02-04T13:36:31.962Z,44.97
2019-02-04T13:37:37.424Z,45.75
2019-02-04T13:38:42.297Z,45.34
2019-02-04T13:39:47.444Z,45.60
2019-02-04T13:40:52.213Z,45.43
2019-02-04T13:41:57.036Z,45.54
2019-02-04T13:43:01.785Z,44.85
2019-02-04T13:44:06.952Z,45.06
2019-02-04T13:45:13.756Z,45.88
2019-02-04T13:46:18.533Z,45.61
2019-02-04T13:47:23.678Z,45.47
2019-02-04T13:48:28.826Z,45.63
2019-02-04T13:49:33.948Z,45.47
2019-02-04T13:50:39.693Z,45.67
2019-02-04T13:51:44.447Z,45.94
2019-02-04T13:52:50.005Z,46.53
2019-02-04T13:53:57.225Z,46.72
2019-02-04T13:55:02.079Z,46.09
2019-02-04T13:56:06.850Z,46.37
2019-02-04T13:57:11.380Z,46.01
2019-02-04T13:58:17.004Z,46.64
2019-02-04T13:59:22.061Z,46.80
2019-02-04T14:00:27.584Z,45.78
2019-02-04T14:01:33.108Z,46.19
2019-02-04T14:02:37.867Z,46.37
2019-02-04T14:03:42.626Z,46.68
2019-02-04T14:04:47.533Z,47.05
2019-02-04T14:05:52.032Z,46.73
2019-02-04T14:06:56.816Z,45.91
2019-02-04T14:08:01.799Z,45.94
2019-02-04T14:09:12.331Z,46.01
2019-02-04T14:10:30.904Z,45.98
2019-02-04T14:11:35.688Z,46.30
2019-02-04T14:12:40.820Z,46.37
2019-02-04T14:13:45.602Z,46.02
2019-02-04T14:14:50.790Z,46.42
2019-02-04T14:15:55.916Z,45.96
2019-02-04T14:17:00.443Z,45.92
2019-02-04T14:18:05.741Z,46.17
2019-02-04T14:19:10.506Z,46.59
2019-02-04T14:20:17.509Z,46.84
2019-02-04T14:21:22.709Z,46.81
2019-02-04T14:22:27.208Z,47.37
2019-02-04T14:23:32.387Z,47.04
2019-02-04T14:24:37.631Z,47.28
2019-02-04T14:25:42.982Z,46.92
2019-02-04T14:26:48.046Z,46.63
2019-02-04T14:27:53.623Z,46.79
2019-02-04T14:28:58.568Z,46.32
2019-02-04T14:30:03.085Z,46.62
2019-02-04T14:31:08.225Z,47.18
2019-02-04T14:32:12.992Z,47.38
2019-02-04T14:33:18.241Z,47.00
2019-02-04T14:34:23.068Z,47.75
2019-02-04T14:35:28.083Z,47.48
2019-02-04T14:36:33.223Z,47.48
2019-02-04T14:37:37.721Z,47.64
2019-02-04T14:38:43.159Z,47.62
2019-02-04T14:39:47.949Z,48.26
2019-02-04T14:40:52.713Z,47.84
2019-02-04T14:41:57.857Z,47.89
2019-02-04T14:43:43.679Z,47.64
2019-02-04T14:44:56.513Z,48.18
2019-02-04T14:46:54.010Z,48.37
2019-02-04T14:48:24.052Z,48.23
2019-02-04T14:50:15.740Z,47.86
2019-02-04T14:52:07.221Z,47.73
2019-02-04T14:53:49.002Z,47.31
2019-02-04T14:55:08.858Z,47.44
2019-02-04T14:56:43.304Z,46.80
2019-02-04T14:57:59.424Z,46.81
2019-02-04T14:59:22.003Z,46.70
2019-02-04T15:01:18.932Z,46.63
2019-02-04T15:02:53.756Z,46.95
2019-02-04T15:04:24.238Z,47.64
2019-02-04T15:05:40.715Z,46.33
2019-02-04T15:07:35.253Z,46.95
2019-02-04T15:09:02.358Z,47.32
2019-02-04T15:10:21.896Z,47.20
2019-02-04T15:12:15.408Z,46.50
2019-02-04T15:14:09.237Z,46.66
2019-02-04T15:16:04.527Z,47.22
2019-02-04T15:17:58.941Z,47.05
2019-02-04T15:19:25.630Z,47.86
2019-02-04T15:21:12.722Z,47.46
2019-02-04T15:22:42.517Z,47.74
2019-02-04T15:24:13.017Z,47.43
2019-02-04T15:26:11.222Z,46.95
2019-02-04T15:27:44.629Z,47.97
2019-02-04T15:29:30.293Z,47.58
2019-02-04T15:31:07.975Z,47.39
2019-02-04T15:32:50.427Z,47.48
2019-02-04T15:35:04.179Z,47.28
2019-02-04T15:36:34.801Z,47.87
2019-02-04T15:38:25.935Z,48.00
2019-02-04T15:40:39.332Z,48.63
2019-02-04T15:42:12.345Z,48.26
2019-02-04T15:43:35.081Z,48.59